Plattville, Illinois
Current Conditions -  °F | °C
As of 7:55 PM on Saturday 25 Oct 2014 (Local Time) from KC09 Reporting Station
Clear Clear  
Wind Chill: 54°   Ceiling: Unl
Heat Index: 54°   Visibility: 10mi
Dew Point: 37°   Wind: 5mph
Humidity: 52%   Direction: 270°W
Pressure: 29.96"   Gusts: NA
Location:  41.5984°N, 88.4334°W
Report Text: KC09 260055Z AUTO 27004KT 10SM CLR 12/03 A2996 RMK AO2 T01220027
Loading
Personal Weather Stations






























Interactive Weather Map
Tropical Storm Tracking
New forecast layout! Learn more

10-Day Weather Forecast

Advertisements
Track Severe Weather on mobile